sensor_id;sensor_type;location;lat;lon;timestamp;P1;durP1;ratioP1;P2;durP2;ratioP2
80293;SDS011;69594;43.516;1.498;2023-07-20T00:02:20;9.80;;;4.90;;
80293;SDS011;69594;43.516;1.498;2023-07-20T00:04:46;12.90;;;4.67;;
80293;SDS011;69594;43.516;1.498;2023-07-20T00:07:11;10.83;;;4.50;;
80293;SDS011;69594;43.516;1.498;2023-07-20T00:09:37;9.25;;;4.10;;
80293;SDS011;69594;43.516;1.498;2023-07-20T00:12:02;9.63;;;4.60;;
80293;SDS011;69594;43.516;1.498;2023-07-20T00:14:31;9.10;;;4.95;;
80293;SDS011;69594;43.516;1.498;2023-07-20T00:16:57;7.90;;;4.03;;
80293;SDS011;69594;43.516;1.498;2023-07-20T00:19:23;10.35;;;4.45;;
80293;SDS011;69594;43.516;1.498;2023-07-20T00:21:49;8.65;;;4.65;;
80293;SDS011;69594;43.516;1.498;2023-07-20T00:24:15;12.27;;;4.70;;
80293;SDS011;69594;43.516;1.498;2023-07-20T00:26:41;11.50;;;4.40;;
80293;SDS011;69594;43.516;1.498;2023-07-20T00:29:06;11.18;;;4.75;;
80293;SDS011;69594;43.516;1.498;2023-07-20T00:31:32;11.30;;;4.27;;
80293;SDS011;69594;43.516;1.498;2023-07-20T00:33:57;10.67;;;4.10;;
80293;SDS011;69594;43.516;1.498;2023-07-20T00:36:23;10.07;;;5.03;;
80293;SDS011;69594;43.516;1.498;2023-07-20T00:38:48;11.67;;;4.57;;
80293;SDS011;69594;43.516;1.498;2023-07-20T00:41:14;10.33;;;5.20;;
80293;SDS011;69594;43.516;1.498;2023-07-20T00:43:39;9.60;;;4.28;;
80293;SDS011;69594;43.516;1.498;2023-07-20T00:46:05;9.30;;;4.20;;
80293;SDS011;69594;43.516;1.498;2023-07-20T00:48:31;11.88;;;4.75;;
80293;SDS011;69594;43.516;1.498;2023-07-20T00:50:58;10.47;;;4.50;;
80293;SDS011;69594;43.516;1.498;2023-07-20T00:53:25;8.70;;;4.22;;
80293;SDS011;69594;43.516;1.498;2023-07-20T00:55:51;10.75;;;5.10;;
80293;SDS011;69594;43.516;1.498;2023-07-20T00:58:17;8.73;;;4.47;;
80293;SDS011;69594;43.516;1.498;2023-07-20T01:00:43;10.10;;;4.63;;
80293;SDS011;69594;43.516;1.498;2023-07-20T01:03:09;9.98;;;4.30;;
80293;SDS011;69594;43.516;1.498;2023-07-20T01:11:16;7.47;;;4.30;;
80293;SDS011;69594;43.516;1.498;2023-07-20T01:13:48;7.95;;;4.47;;
80293;SDS011;69594;43.516;1.498;2023-07-20T01:16:15;9.93;;;4.60;;
80293;SDS011;69594;43.516;1.498;2023-07-20T01:18:41;6.50;;;4.28;;
80293;SDS011;69594;43.516;1.498;2023-07-20T01:21:09;12.37;;;4.40;;
80293;SDS011;69594;43.516;1.498;2023-07-20T01:31:28;8.30;;;3.95;;
80293;SDS011;69594;43.516;1.498;2023-07-20T01:34:00;11.15;;;4.60;;
80293;SDS011;69594;43.516;1.498;2023-07-20T01:36:28;9.07;;;4.30;;
80293;SDS011;69594;43.516;1.498;2023-07-20T01:38:58;10.45;;;4.75;;
80293;SDS011;69594;43.516;1.498;2023-07-20T01:41:24;10.57;;;4.15;;
80293;SDS011;69594;43.516;1.498;2023-07-20T01:43:50;12.23;;;4.67;;
80293;SDS011;69594;43.516;1.498;2023-07-20T01:46:15;8.00;;;3.65;;
80293;SDS011;69594;43.516;1.498;2023-07-20T01:48:41;9.03;;;4.60;;
80293;SDS011;69594;43.516;1.498;2023-07-20T01:51:07;9.10;;;4.35;;
80293;SDS011;69594;43.516;1.498;2023-07-20T01:53:32;8.40;;;3.97;;
80293;SDS011;69594;43.516;1.498;2023-07-20T01:55:58;10.30;;;4.80;;
80293;SDS011;69594;43.516;1.498;2023-07-20T01:58:23;10.60;;;4.57;;
80293;SDS011;69594;43.516;1.498;2023-07-20T02:00:49;8.82;;;4.35;;
80293;SDS011;69594;43.516;1.498;2023-07-20T02:03:15;9.07;;;4.77;;
80293;SDS011;69594;43.516;1.498;2023-07-20T02:05:44;6.93;;;4.37;;
80293;SDS011;69594;43.516;1.498;2023-07-20T02:08:10;8.73;;;4.40;;
80293;SDS011;69594;43.516;1.498;2023-07-20T02:10:36;11.25;;;4.40;;
80293;SDS011;69594;43.516;1.498;2023-07-20T02:13:01;8.30;;;4.63;;
80293;SDS011;69594;43.516;1.498;2023-07-20T02:15:27;8.77;;;4.82;;
80293;SDS011;69594;43.516;1.498;2023-07-20T02:17:53;10.43;;;4.13;;
80293;SDS011;69594;43.516;1.498;2023-07-20T02:20:19;10.95;;;5.25;;
80293;SDS011;69594;43.516;1.498;2023-07-20T02:22:45;10.20;;;4.80;;
80293;SDS011;69594;43.516;1.498;2023-07-20T02:25:11;8.83;;;4.87;;
80293;SDS011;69594;43.516;1.498;2023-07-20T02:27:37;10.70;;;4.57;;
80293;SDS011;69594;43.516;1.498;2023-07-20T02:30:04;8.98;;;4.72;;
80293;SDS011;69594;43.516;1.498;2023-07-20T02:32:30;9.88;;;4.65;;
80293;SDS011;69594;43.516;1.498;2023-07-20T02:34:57;7.40;;;4.10;;
80293;SDS011;69594;43.516;1.498;2023-07-20T02:37:23;9.65;;;4.45;;
80293;SDS011;69594;43.516;1.498;2023-07-20T02:39:49;8.23;;;4.63;;
80293;SDS011;69594;43.516;1.498;2023-07-20T02:42:15;8.57;;;4.40;;
80293;SDS011;69594;43.516;1.498;2023-07-20T02:44:40;11.75;;;4.97;;
80293;SDS011;69594;43.516;1.498;2023-07-20T02:47:06;8.17;;;4.17;;
80293;SDS011;69594;43.516;1.498;2023-07-20T02:49:31;9.33;;;5.00;;
80293;SDS011;69594;43.516;1.498;2023-07-20T02:51:57;10.93;;;4.73;;
80293;SDS011;69594;43.516;1.498;2023-07-20T02:54:22;8.40;;;4.63;;
80293;SDS011;69594;43.516;1.498;2023-07-20T02:56:48;9.93;;;4.80;;
80293;SDS011;69594;43.516;1.498;2023-07-20T02:59:13;10.90;;;4.60;;
80293;SDS011;69594;43.516;1.498;2023-07-20T03:01:39;10.40;;;4.80;;
80293;SDS011;69594;43.516;1.498;2023-07-20T03:04:07;9.38;;;4.82;;
80293;SDS011;69594;43.516;1.498;2023-07-20T03:06:35;8.23;;;4.35;;
80293;SDS011;69594;43.516;1.498;2023-07-20T03:09:01;9.13;;;4.88;;
80293;SDS011;69594;43.516;1.498;2023-07-20T03:11:26;10.10;;;4.77;;
80293;SDS011;69594;43.516;1.498;2023-07-20T03:13:52;8.03;;;4.57;;
80293;SDS011;69594;43.516;1.498;2023-07-20T03:16:18;10.18;;;5.13;;
80293;SDS011;69594;43.516;1.498;2023-07-20T03:18:44;7.68;;;4.15;;
80293;SDS011;69594;43.516;1.498;2023-07-20T03:21:11;9.95;;;5.03;;
80293;SDS011;69594;43.516;1.498;2023-07-20T03:23:37;11.30;;;4.70;;
80293;SDS011;69594;43.516;1.498;2023-07-20T03:26:06;8.75;;;4.20;;
80293;SDS011;69594;43.516;1.498;2023-07-20T03:28:34;13.30;;;4.95;;
80293;SDS011;69594;43.516;1.498;2023-07-20T03:31:03;10.68;;;5.07;;
80293;SDS011;69594;43.516;1.498;2023-07-20T03:33:30;9.50;;;4.55;;
80293;SDS011;69594;43.516;1.498;2023-07-20T03:35:56;7.33;;;4.23;;
80293;SDS011;69594;43.516;1.498;2023-07-20T03:38:22;9.85;;;4.82;;
80293;SDS011;69594;43.516;1.498;2023-07-20T03:40:55;9.23;;;4.75;;
80293;SDS011;69594;43.516;1.498;2023-07-20T03:43:23;9.05;;;5.05;;
80293;SDS011;69594;43.516;1.498;2023-07-20T03:45:49;10.20;;;4.80;;
80293;SDS011;69594;43.516;1.498;2023-07-20T03:48:15;9.95;;;4.90;;
80293;SDS011;69594;43.516;1.498;2023-07-20T03:50:42;10.50;;;4.63;;
80293;SDS011;69594;43.516;1.498;2023-07-20T03:53:08;10.65;;;4.97;;
80293;SDS011;69594;43.516;1.498;2023-07-20T03:55:34;9.20;;;4.77;;
80293;SDS011;69594;43.516;1.498;2023-07-20T03:58:00;8.27;;;4.68;;
80293;SDS011;69594;43.516;1.498;2023-07-20T04:00:26;11.18;;;5.32;;
80293;SDS011;69594;43.516;1.498;2023-07-20T04:02:52;11.40;;;5.07;;
80293;SDS011;69594;43.516;1.498;2023-07-20T04:05:18;12.50;;;4.95;;
80293;SDS011;69594;43.516;1.498;2023-07-20T04:07:43;13.23;;;5.23;;
80293;SDS011;69594;43.516;1.498;2023-07-20T04:10:09;11.63;;;5.73;;
80293;SDS011;69594;43.516;1.498;2023-07-20T04:12:35;10.82;;;5.40;;
80293;SDS011;69594;43.516;1.498;2023-07-20T04:15:00;11.93;;;5.17;;
80293;SDS011;69594;43.516;1.498;2023-07-20T04:17:26;11.60;;;5.97;;
80293;SDS011;69594;43.516;1.498;2023-07-20T04:19:51;9.03;;;5.10;;
80293;SDS011;69594;43.516;1.498;2023-07-20T04:22:17;12.90;;;5.15;;
80293;SDS011;69594;43.516;1.498;2023-07-20T04:24:42;9.70;;;5.20;;
80293;SDS011;69594;43.516;1.498;2023-07-20T04:27:08;10.73;;;4.90;;
80293;SDS011;69594;43.516;1.498;2023-07-20T04:29:34;12.05;;;5.65;;
80293;SDS011;69594;43.516;1.498;2023-07-20T04:31:59;9.37;;;5.47;;
80293;SDS011;69594;43.516;1.498;2023-07-20T04:34:25;11.63;;;5.00;;
80293;SDS011;69594;43.516;1.498;2023-07-20T04:36:50;10.30;;;4.80;;
80293;SDS011;69594;43.516;1.498;2023-07-20T04:39:16;9.50;;;5.37;;
80293;SDS011;69594;43.516;1.498;2023-07-20T04:41:42;10.40;;;4.97;;
80293;SDS011;69594;43.516;1.498;2023-07-20T04:44:07;10.40;;;5.43;;
80293;SDS011;69594;43.516;1.498;2023-07-20T04:46:34;9.63;;;5.05;;
80293;SDS011;69594;43.516;1.498;2023-07-20T04:49:00;11.43;;;5.27;;
80293;SDS011;69594;43.516;1.498;2023-07-20T04:51:26;11.43;;;5.55;;
80293;SDS011;69594;43.516;1.498;2023-07-20T04:53:52;9.60;;;5.10;;
80293;SDS011;69594;43.516;1.498;2023-07-20T04:56:18;11.43;;;5.50;;
80293;SDS011;69594;43.516;1.498;2023-07-20T04:58:43;8.97;;;5.00;;
80293;SDS011;69594;43.516;1.498;2023-07-20T05:01:09;10.80;;;5.40;;
80293;SDS011;69594;43.516;1.498;2023-07-20T05:03:34;10.60;;;5.50;;
80293;SDS011;69594;43.516;1.498;2023-07-20T05:06:00;9.57;;;5.00;;
80293;SDS011;69594;43.516;1.498;2023-07-20T05:08:25;22.37;;;14.67;;
80293;SDS011;69594;43.516;1.498;2023-07-20T05:10:52;10.20;;;5.07;;
80293;SDS011;69594;43.516;1.498;2023-07-20T05:13:17;7.63;;;4.20;;
80293;SDS011;69594;43.516;1.498;2023-07-20T05:15:43;11.50;;;5.37;;
80293;SDS011;69594;43.516;1.498;2023-07-20T05:18:08;10.77;;;5.80;;
80293;SDS011;69594;43.516;1.498;2023-07-20T05:20:34;11.83;;;5.43;;
80293;SDS011;69594;43.516;1.498;2023-07-20T05:23:00;10.05;;;5.32;;
80293;SDS011;69594;43.516;1.498;2023-07-20T05:25:26;28.93;;;19.93;;
80293;SDS011;69594;43.516;1.498;2023-07-20T05:27:52;9.90;;;5.20;;
80293;SDS011;69594;43.516;1.498;2023-07-20T05:30:17;9.63;;;4.60;;
80293;SDS011;69594;43.516;1.498;2023-07-20T05:32:44;7.53;;;4.30;;
80293;SDS011;69594;43.516;1.498;2023-07-20T05:35:12;13.43;;;7.85;;
80293;SDS011;69594;43.516;1.498;2023-07-20T05:37:39;8.90;;;5.07;;
80293;SDS011;69594;43.516;1.498;2023-07-20T05:40:04;8.80;;;4.10;;
80293;SDS011;69594;43.516;1.498;2023-07-20T05:42:31;6.30;;;4.15;;
80293;SDS011;69594;43.516;1.498;2023-07-20T05:44:57;11.17;;;4.50;;
80293;SDS011;69594;43.516;1.498;2023-07-20T05:47:22;7.90;;;4.00;;
80293;SDS011;69594;43.516;1.498;2023-07-20T05:49:48;14.23;;;5.85;;
80293;SDS011;69594;43.516;1.498;2023-07-20T05:52:14;10.87;;;4.77;;
80293;SDS011;69594;43.516;1.498;2023-07-20T05:54:39;9.80;;;4.73;;
80293;SDS011;69594;43.516;1.498;2023-07-20T05:57:05;8.40;;;4.10;;
80293;SDS011;69594;43.516;1.498;2023-07-20T05:59:30;5.60;;;3.40;;
80293;SDS011;69594;43.516;1.498;2023-07-20T06:01:56;7.00;;;3.63;;
80293;SDS011;69594;43.516;1.498;2023-07-20T06:04:22;6.40;;;3.20;;
80293;SDS011;69594;43.516;1.498;2023-07-20T06:06:48;7.22;;;2.90;;
80293;SDS011;69594;43.516;1.498;2023-07-20T06:09:14;6.28;;;3.17;;
80293;SDS011;69594;43.516;1.498;2023-07-20T06:11:39;9.10;;;3.00;;
80293;SDS011;69594;43.516;1.498;2023-07-20T06:14:05;6.77;;;2.97;;
80293;SDS011;69594;43.516;1.498;2023-07-20T06:16:31;6.43;;;2.90;;
80293;SDS011;69594;43.516;1.498;2023-07-20T06:18:56;5.83;;;3.17;;
80293;SDS011;69594;43.516;1.498;2023-07-20T06:21:22;6.65;;;2.67;;
80293;SDS011;69594;43.516;1.498;2023-07-20T06:23:48;5.63;;;3.20;;
80293;SDS011;69594;43.516;1.498;2023-07-20T06:26:13;6.45;;;3.00;;
80293;SDS011;69594;43.516;1.498;2023-07-20T06:28:39;5.57;;;2.93;;
80293;SDS011;69594;43.516;1.498;2023-07-20T06:31:04;12.03;;;3.63;;
80293;SDS011;69594;43.516;1.498;2023-07-20T06:33:30;6.10;;;3.03;;
80293;SDS011;69594;43.516;1.498;2023-07-20T06:35:56;8.43;;;3.13;;
80293;SDS011;69594;43.516;1.498;2023-07-20T06:38:24;9.65;;;3.40;;
80293;SDS011;69594;43.516;1.498;2023-07-20T06:40:50;7.97;;;3.40;;
80293;SDS011;69594;43.516;1.498;2023-07-20T06:43:16;8.23;;;3.50;;
80293;SDS011;69594;43.516;1.498;2023-07-20T06:45:42;7.72;;;3.13;;
80293;SDS011;69594;43.516;1.498;2023-07-20T06:48:08;8.68;;;3.45;;
80293;SDS011;69594;43.516;1.498;2023-07-20T06:50:34;8.73;;;3.63;;
80293;SDS011;69594;43.516;1.498;2023-07-20T06:53:00;10.30;;;3.50;;
80293;SDS011;69594;43.516;1.498;2023-07-20T06:58:44;5.20;;;3.22;;
80293;SDS011;69594;43.516;1.498;2023-07-20T07:01:10;5.93;;;2.80;;
80293;SDS011;69594;43.516;1.498;2023-07-20T07:03:35;6.53;;;3.00;;
80293;SDS011;69594;43.516;1.498;2023-07-20T07:06:01;10.55;;;3.42;;
80293;SDS011;69594;43.516;1.498;2023-07-20T07:08:27;6.07;;;3.03;;
80293;SDS011;69594;43.516;1.498;2023-07-20T07:10:52;8.00;;;2.97;;
80293;SDS011;69594;43.516;1.498;2023-07-20T07:13:18;7.73;;;3.50;;
80293;SDS011;69594;43.516;1.498;2023-07-20T07:16:42;5.70;;;2.65;;
80293;SDS011;69594;43.516;1.498;2023-07-20T07:19:07;4.97;;;2.50;;
80293;SDS011;69594;43.516;1.498;2023-07-20T07:21:33;6.70;;;3.17;;
80293;SDS011;69594;43.516;1.498;2023-07-20T07:23:58;8.10;;;3.00;;
80293;SDS011;69594;43.516;1.498;2023-07-20T07:28:08;7.68;;;2.72;;
80293;SDS011;69594;43.516;1.498;2023-07-20T07:30:34;6.00;;;2.77;;
80293;SDS011;69594;43.516;1.498;2023-07-20T07:32:59;5.13;;;2.50;;
80293;SDS011;69594;43.516;1.498;2023-07-20T07:35:24;9.18;;;3.03;;
80293;SDS011;69594;43.516;1.498;2023-07-20T08:01:17;7.22;;;2.22;;
80293;SDS011;69594;43.516;1.498;2023-07-20T08:03:46;4.70;;;2.42;;
80293;SDS011;69594;43.516;1.498;2023-07-20T08:06:15;5.80;;;2.15;;
80293;SDS011;69594;43.516;1.498;2023-07-20T08:08:41;9.33;;;2.47;;
80293;SDS011;69594;43.516;1.498;2023-07-20T08:11:07;5.32;;;2.30;;
80293;SDS011;69594;43.516;1.498;2023-07-20T08:13:32;4.77;;;2.23;;
80293;SDS011;69594;43.516;1.498;2023-07-20T08:15:58;6.35;;;2.20;;
80293;SDS011;69594;43.516;1.498;2023-07-20T08:18:23;4.97;;;2.23;;
80293;SDS011;69594;43.516;1.498;2023-07-20T08:20:49;4.43;;;1.93;;
80293;SDS011;69594;43.516;1.498;2023-07-20T08:23:14;4.73;;;2.30;;
80293;SDS011;69594;43.516;1.498;2023-07-20T08:25:39;5.22;;;2.15;;
80293;SDS011;69594;43.516;1.498;2023-07-20T08:28:09;4.37;;;2.13;;
80293;SDS011;69594;43.516;1.498;2023-07-20T08:30:41;5.38;;;2.40;;
80293;SDS011;69594;43.516;1.498;2023-07-20T08:33:07;5.55;;;2.42;;
80293;SDS011;69594;43.516;1.498;2023-07-20T08:35:33;4.97;;;2.37;;
80293;SDS011;69594;43.516;1.498;2023-07-20T08:37:58;4.53;;;2.42;;
80293;SDS011;69594;43.516;1.498;2023-07-20T08:40:24;4.97;;;2.47;;
80293;SDS011;69594;43.516;1.498;2023-07-20T08:42:49;4.00;;;2.20;;
80293;SDS011;69594;43.516;1.498;2023-07-20T08:45:15;5.85;;;2.10;;
80293;SDS011;69594;43.516;1.498;2023-07-20T08:47:42;5.13;;;2.10;;
80293;SDS011;69594;43.516;1.498;2023-07-20T08:50:09;6.17;;;1.90;;
80293;SDS011;69594;43.516;1.498;2023-07-20T08:52:35;5.13;;;2.28;;
80293;SDS011;69594;43.516;1.498;2023-07-20T08:55:01;6.00;;;2.63;;
80293;SDS011;69594;43.516;1.498;2023-07-20T08:57:29;4.00;;;2.17;;
80293;SDS011;69594;43.516;1.498;2023-07-20T08:59:56;4.90;;;2.28;;
80293;SDS011;69594;43.516;1.498;2023-07-20T09:02:22;4.20;;;2.17;;
80293;SDS011;69594;43.516;1.498;2023-07-20T09:04:50;4.35;;;2.15;;
80293;SDS011;69594;43.516;1.498;2023-07-20T09:07:15;4.20;;;2.03;;
80293;SDS011;69594;43.516;1.498;2023-07-20T09:09:41;2.67;;;1.92;;
80293;SDS011;69594;43.516;1.498;2023-07-20T09:12:12;6.27;;;2.20;;
80293;SDS011;69594;43.516;1.498;2023-07-20T09:14:38;3.85;;;1.95;;
80293;SDS011;69594;43.516;1.498;2023-07-20T09:17:03;7.60;;;2.30;;
80293;SDS011;69594;43.516;1.498;2023-07-20T09:19:29;4.88;;;2.10;;
80293;SDS011;69594;43.516;1.498;2023-07-20T09:21:54;4.67;;;2.03;;
80293;SDS011;69594;43.516;1.498;2023-07-20T09:24:20;5.20;;;1.87;;
80293;SDS011;69594;43.516;1.498;2023-07-20T09:26:46;7.15;;;2.22;;
80293;SDS011;69594;43.516;1.498;2023-07-20T09:29:13;2.97;;;1.40;;
80293;SDS011;69594;43.516;1.498;2023-07-20T09:31:39;2.53;;;1.60;;
80293;SDS011;69594;43.516;1.498;2023-07-20T09:34:05;3.63;;;1.83;;
80293;SDS011;69594;43.516;1.498;2023-07-20T09:36:35;3.83;;;1.90;;
80293;SDS011;69594;43.516;1.498;2023-07-20T09:39:01;4.05;;;1.83;;
80293;SDS011;69594;43.516;1.498;2023-07-20T09:41:27;3.58;;;1.63;;
80293;SDS011;69594;43.516;1.498;2023-07-20T09:43:53;3.47;;;1.60;;
80293;SDS011;69594;43.516;1.498;2023-07-20T09:46:18;3.50;;;1.80;;
80293;SDS011;69594;43.516;1.498;2023-07-20T09:48:54;3.78;;;1.70;;
80293;SDS011;69594;43.516;1.498;2023-07-20T09:51:23;4.53;;;1.70;;
80293;SDS011;69594;43.516;1.498;2023-07-20T09:53:49;4.82;;;1.90;;
80293;SDS011;69594;43.516;1.498;2023-07-20T09:56:16;5.35;;;1.67;;
80293;SDS011;69594;43.516;1.498;2023-07-20T09:58:42;4.05;;;1.60;;
80293;SDS011;69594;43.516;1.498;2023-07-20T10:01:09;3.47;;;1.40;;
80293;SDS011;69594;43.516;1.498;2023-07-20T10:03:35;3.60;;;1.77;;
80293;SDS011;69594;43.516;1.498;2023-07-20T10:06:06;5.07;;;1.75;;
80293;SDS011;69594;43.516;1.498;2023-07-20T10:08:35;3.05;;;1.65;;
80293;SDS011;69594;43.516;1.498;2023-07-20T10:11:04;4.13;;;1.73;;
80293;SDS011;69594;43.516;1.498;2023-07-20T10:13:30;3.22;;;1.73;;
80293;SDS011;69594;43.516;1.498;2023-07-20T10:15:59;4.27;;;1.70;;
80293;SDS011;69594;43.516;1.498;2023-07-20T10:18:28;4.22;;;1.58;;
80293;SDS011;69594;43.516;1.498;2023-07-20T10:20:54;4.18;;;1.63;;
80293;SDS011;69594;43.516;1.498;2023-07-20T10:23:20;3.60;;;1.52;;
80293;SDS011;69594;43.516;1.498;2023-07-20T10:25:46;3.08;;;1.80;;
80293;SDS011;69594;43.516;1.498;2023-07-20T10:28:12;6.47;;;1.70;;
80293;SDS011;69594;43.516;1.498;2023-07-20T10:30:39;3.03;;;1.80;;
80293;SDS011;69594;43.516;1.498;2023-07-20T10:33:05;2.80;;;1.58;;
80293;SDS011;69594;43.516;1.498;2023-07-20T10:35:31;6.17;;;1.50;;
80293;SDS011;69594;43.516;1.498;2023-07-20T10:38:15;4.20;;;1.60;;
80293;SDS011;69594;43.516;1.498;2023-07-20T10:40:40;3.67;;;1.50;;
80293;SDS011;69594;43.516;1.498;2023-07-20T10:43:06;2.57;;;1.70;;
80293;SDS011;69594;43.516;1.498;2023-07-20T10:45:36;5.68;;;1.40;;
80293;SDS011;69594;43.516;1.498;2023-07-20T10:48:03;6.43;;;2.13;;
80293;SDS011;69594;43.516;1.498;2023-07-20T10:50:28;4.53;;;1.95;;
80293;SDS011;69594;43.516;1.498;2023-07-20T10:53:10;4.47;;;1.73;;
80293;SDS011;69594;43.516;1.498;2023-07-20T10:55:36;4.28;;;1.92;;
80293;SDS011;69594;43.516;1.498;2023-07-20T10:58:08;3.77;;;1.60;;
80293;SDS011;69594;43.516;1.498;2023-07-20T11:00:37;3.30;;;1.60;;
80293;SDS011;69594;43.516;1.498;2023-07-20T11:03:02;2.63;;;1.30;;
80293;SDS011;69594;43.516;1.498;2023-07-20T11:05:35;3.83;;;1.63;;
80293;SDS011;69594;43.516;1.498;2023-07-20T11:08:03;5.18;;;1.73;;
80293;SDS011;69594;43.516;1.498;2023-07-20T11:10:28;4.13;;;2.00;;
80293;SDS011;69594;43.516;1.498;2023-07-20T11:18:22;2.83;;;1.83;;
80293;SDS011;69594;43.516;1.498;2023-07-20T11:20:50;7.18;;;2.03;;
80293;SDS011;69594;43.516;1.498;2023-07-20T11:23:16;5.80;;;1.80;;
80293;SDS011;69594;43.516;1.498;2023-07-20T11:25:42;7.73;;;1.97;;
80293;SDS011;69594;43.516;1.498;2023-07-20T11:28:07;4.47;;;1.90;;
80293;SDS011;69594;43.516;1.498;2023-07-20T11:30:34;5.22;;;2.17;;
80293;SDS011;69594;43.516;1.498;2023-07-20T11:32:59;3.27;;;1.80;;
80293;SDS011;69594;43.516;1.498;2023-07-20T11:35:25;5.50;;;2.03;;
80293;SDS011;69594;43.516;1.498;2023-07-20T11:37:50;6.57;;;2.03;;
80293;SDS011;69594;43.516;1.498;2023-07-20T11:40:15;4.03;;;2.03;;
80293;SDS011;69594;43.516;1.498;2023-07-20T11:42:41;3.93;;;1.70;;
80293;SDS011;69594;43.516;1.498;2023-07-20T11:45:06;6.87;;;1.90;;
80293;SDS011;69594;43.516;1.498;2023-07-20T11:47:32;4.27;;;1.67;;
80293;SDS011;69594;43.516;1.498;2023-07-20T11:49:57;6.30;;;2.10;;
80293;SDS011;69594;43.516;1.498;2023-07-20T11:52:27;4.72;;;1.75;;
80293;SDS011;69594;43.516;1.498;2023-07-20T11:54:53;4.57;;;2.00;;
80293;SDS011;69594;43.516;1.498;2023-07-20T11:57:18;5.50;;;1.90;;
80293;SDS011;69594;43.516;1.498;2023-07-20T12:02:22;4.57;;;1.83;;
80293;SDS011;69594;43.516;1.498;2023-07-20T12:04:47;5.45;;;1.83;;
80293;SDS011;69594;43.516;1.498;2023-07-20T12:07:13;3.97;;;1.90;;
80293;SDS011;69594;43.516;1.498;2023-07-20T12:09:38;4.47;;;2.03;;
80293;SDS011;69594;43.516;1.498;2023-07-20T12:12:09;4.53;;;1.73;;
80293;SDS011;69594;43.516;1.498;2023-07-20T12:14:35;5.93;;;1.92;;
80293;SDS011;69594;43.516;1.498;2023-07-20T12:17:00;5.33;;;2.17;;
80293;SDS011;69594;43.516;1.498;2023-07-20T12:19:26;2.60;;;1.70;;
80293;SDS011;69594;43.516;1.498;2023-07-20T12:21:56;3.00;;;1.67;;
80293;SDS011;69594;43.516;1.498;2023-07-20T12:24:22;4.10;;;1.87;;
80293;SDS011;69594;43.516;1.498;2023-07-20T12:26:48;3.83;;;1.90;;
80293;SDS011;69594;43.516;1.498;2023-07-20T12:29:13;3.23;;;1.87;;
80293;SDS011;69594;43.516;1.498;2023-07-20T12:31:38;3.67;;;2.00;;
80293;SDS011;69594;43.516;1.498;2023-07-20T12:34:04;4.87;;;2.20;;
80293;SDS011;69594;43.516;1.498;2023-07-20T12:36:29;4.33;;;2.00;;
80293;SDS011;69594;43.516;1.498;2023-07-20T12:38:56;3.05;;;1.70;;
80293;SDS011;69594;43.516;1.498;2023-07-20T12:41:21;4.93;;;2.00;;
80293;SDS011;69594;43.516;1.498;2023-07-20T12:43:46;4.03;;;2.00;;
80293;SDS011;69594;43.516;1.498;2023-07-20T12:46:12;6.93;;;2.00;;
80293;SDS011;69594;43.516;1.498;2023-07-20T12:48:38;3.92;;;2.03;;
80293;SDS011;69594;43.516;1.498;2023-07-20T12:51:05;4.22;;;2.03;;
80293;SDS011;69594;43.516;1.498;2023-07-20T12:53:31;4.00;;;1.90;;
80293;SDS011;69594;43.516;1.498;2023-07-20T12:55:57;5.47;;;1.73;;
80293;SDS011;69594;43.516;1.498;2023-07-20T12:58:22;3.83;;;1.92;;
80293;SDS011;69594;43.516;1.498;2023-07-20T13:00:48;6.60;;;2.45;;
80293;SDS011;69594;43.516;1.498;2023-07-20T13:03:14;5.37;;;1.73;;
80293;SDS011;69594;43.516;1.498;2023-07-20T13:05:41;6.28;;;2.08;;
80293;SDS011;69594;43.516;1.498;2023-07-20T13:08:06;3.27;;;1.70;;
80293;SDS011;69594;43.516;1.498;2023-07-20T13:10:32;3.28;;;2.20;;
80293;SDS011;69594;43.516;1.498;2023-07-20T13:12:57;4.80;;;2.20;;
80293;SDS011;69594;43.516;1.498;2023-07-20T13:15:24;3.77;;;2.00;;
80293;SDS011;69594;43.516;1.498;2023-07-20T13:17:49;3.17;;;2.13;;
80293;SDS011;69594;43.516;1.498;2023-07-20T13:20:15;5.50;;;2.10;;
80293;SDS011;69594;43.516;1.498;2023-07-20T13:22:41;3.47;;;1.93;;
80293;SDS011;69594;43.516;1.498;2023-07-20T13:25:07;3.60;;;1.87;;
80293;SDS011;69594;43.516;1.498;2023-07-20T13:27:32;4.13;;;2.05;;
80293;SDS011;69594;43.516;1.498;2023-07-20T13:29:58;1.80;;;1.57;;
80293;SDS011;69594;43.516;1.498;2023-07-20T13:32:23;4.27;;;1.83;;
80293;SDS011;69594;43.516;1.498;2023-07-20T13:34:49;4.67;;;2.03;;
80293;SDS011;69594;43.516;1.498;2023-07-20T13:37:14;4.05;;;1.77;;
80293;SDS011;69594;43.516;1.498;2023-07-20T13:39:41;2.83;;;1.90;;
80293;SDS011;69594;43.516;1.498;2023-07-20T13:42:06;5.53;;;2.13;;
80293;SDS011;69594;43.516;1.498;2023-07-20T13:44:32;5.30;;;2.07;;
80293;SDS011;69594;43.516;1.498;2023-07-20T13:46:57;5.97;;;3.83;;
80293;SDS011;69594;43.516;1.498;2023-07-20T13:49:23;4.47;;;2.22;;
80293;SDS011;69594;43.516;1.498;2023-07-20T13:51:48;4.00;;;2.00;;
80293;SDS011;69594;43.516;1.498;2023-07-20T13:54:13;5.20;;;2.03;;
80293;SDS011;69594;43.516;1.498;2023-07-20T13:56:39;4.50;;;2.13;;
80293;SDS011;69594;43.516;1.498;2023-07-20T13:59:04;4.73;;;2.37;;
80293;SDS011;69594;43.516;1.498;2023-07-20T14:01:29;2.45;;;1.92;;
80293;SDS011;69594;43.516;1.498;2023-07-20T14:03:57;2.93;;;1.83;;
80293;SDS011;69594;43.516;1.498;2023-07-20T14:06:23;5.72;;;2.33;;
80293;SDS011;69594;43.516;1.498;2023-07-20T14:08:48;3.93;;;1.80;;
80293;SDS011;69594;43.516;1.498;2023-07-20T14:11:15;3.03;;;1.73;;
80293;SDS011;69594;43.516;1.498;2023-07-20T14:13:41;3.13;;;1.80;;
80293;SDS011;69594;43.516;1.498;2023-07-20T14:16:12;4.47;;;1.90;;
80293;SDS011;69594;43.516;1.498;2023-07-20T14:18:38;3.08;;;1.98;;
80293;SDS011;69594;43.516;1.498;2023-07-20T14:21:03;5.23;;;2.00;;
80293;SDS011;69594;43.516;1.498;2023-07-20T14:23:30;5.43;;;1.80;;
80293;SDS011;69594;43.516;1.498;2023-07-20T14:25:55;3.97;;;2.05;;
80293;SDS011;69594;43.516;1.498;2023-07-20T14:28:21;3.27;;;1.80;;
80293;SDS011;69594;43.516;1.498;2023-07-20T14:30:46;5.27;;;2.37;;
80293;SDS011;69594;43.516;1.498;2023-07-20T14:33:11;4.90;;;2.07;;
80293;SDS011;69594;43.516;1.498;2023-07-20T14:35:37;3.43;;;2.00;;
80293;SDS011;69594;43.516;1.498;2023-07-20T14:38:02;5.63;;;2.20;;
80293;SDS011;69594;43.516;1.498;2023-07-20T14:40:27;3.10;;;1.93;;
80293;SDS011;69594;43.516;1.498;2023-07-20T14:42:55;4.13;;;2.07;;
80293;SDS011;69594;43.516;1.498;2023-07-20T14:45:20;4.10;;;2.08;;
80293;SDS011;69594;43.516;1.498;2023-07-20T14:47:45;4.37;;;2.00;;
80293;SDS011;69594;43.516;1.498;2023-07-20T14:50:11;8.43;;;2.20;;
80293;SDS011;69594;43.516;1.498;2023-07-20T14:52:37;3.80;;;1.90;;
80293;SDS011;69594;43.516;1.498;2023-07-20T14:55:02;6.70;;;2.03;;
80293;SDS011;69594;43.516;1.498;2023-07-20T14:57:27;3.33;;;1.77;;
80293;SDS011;69594;43.516;1.498;2023-07-20T14:59:53;3.60;;;1.87;;
80293;SDS011;69594;43.516;1.498;2023-07-20T15:02:18;3.57;;;1.97;;
80293;SDS011;69594;43.516;1.498;2023-07-20T15:04:47;3.57;;;2.17;;
80293;SDS011;69594;43.516;1.498;2023-07-20T15:07:14;6.97;;;2.08;;
80293;SDS011;69594;43.516;1.498;2023-07-20T15:09:39;5.03;;;2.00;;
80293;SDS011;69594;43.516;1.498;2023-07-20T15:12:05;3.37;;;1.97;;
80293;SDS011;69594;43.516;1.498;2023-07-20T15:14:30;3.47;;;2.17;;
80293;SDS011;69594;43.516;1.498;2023-07-20T15:16:56;4.80;;;2.00;;
80293;SDS011;69594;43.516;1.498;2023-07-20T15:19:21;3.17;;;1.93;;
80293;SDS011;69594;43.516;1.498;2023-07-20T15:21:47;3.83;;;2.00;;
80293;SDS011;69594;43.516;1.498;2023-07-20T15:24:12;3.13;;;1.70;;
80293;SDS011;69594;43.516;1.498;2023-07-20T15:26:37;6.40;;;2.00;;
80293;SDS011;69594;43.516;1.498;2023-07-20T15:29:03;3.63;;;2.03;;
80293;SDS011;69594;43.516;1.498;2023-07-20T15:31:29;4.07;;;2.20;;